Terminal Aerodrome Forecast
Issued by NWS

Home | Current Version | Previous Version | Text Only | Print | Product List | Glossary On
Versions: 1 2 3 4 5 6 7 8 9 10 11 12 13 14 15 16 17
000
FTUS41 KBTV 192329
TAFMPV
TAF
KMPV 192329Z 2000/2024 27005KT P6SM SCT050
     FM200800 25005KT P6SM BKN025
     FM201300 30009KT P6SM SCT030=

USA.gov is the U.S. government's official web portal to all federal, state and local government web resources and services.